Time;durP1;ratioP1;P1;durP2;ratioP2;P2;SDS_P1;SDS_P2;PMS_P1;PMS_P2;Temp;Humidity;BMP_temperature;BMP_pressure;BME280_temperature;BME280_humidity;BME280_pressure;Samples;Min_cycle;Max_cycle;Signal;HPM_P1;HPM_P2
2021/06/03 00:01:53;;;;;;;3.92;2.17;;;;;;;18.71;47.30;101474.25;146709;570;46020;-67
2021/06/03 00:04:24;;;;;;;4.90;2.20;;;;;;;18.65;47.51;101475.44;146703;579;47902;-67
2021/06/03 00:06:54;;;;;;;4.57;2.10;;;;;;;18.65;47.45;101463.94;146707;579;46021;-66
2021/06/03 00:09:25;;;;;;;3.70;2.20;;;;;;;18.66;47.50;101466.53;146704;594;46016;-65
2021/06/03 00:11:56;;;;;;;3.50;2.05;;;;;;;18.60;47.40;101464.16;146706;582;46020;-65
2021/06/03 00:14:27;;;;;;;5.65;2.40;;;;;;;18.54;47.55;101469.78;146704;570;46016;-65
2021/06/03 00:16:57;;;;;;;4.32;2.15;;;;;;;18.50;47.52;101462.91;146701;569;46020;-65
2021/06/03 00:19:28;;;;;;;7.03;2.40;;;;;;;18.43;47.90;101465.84;146705;650;46014;-64
2021/06/03 00:21:58;;;;;;;3.78;1.80;;;;;;;18.40;47.65;101459.84;146708;687;46010;-65
2021/06/03 00:24:30;;;;;;;3.20;2.12;;;;;;;18.36;47.42;101463.59;146704;597;46014;-64
2021/06/03 00:27:00;;;;;;;4.47;1.90;;;;;;;18.26;47.84;101452.50;146707;588;46020;-65
2021/06/03 00:29:31;;;;;;;3.75;2.00;;;;;;;18.35;47.71;101461.84;146703;595;46020;-66
2021/06/03 00:32:01;;;;;;;3.00;2.00;;;;;;;18.35;47.48;101464.50;146709;737;45020;-65
2021/06/03 00:34:32;;;;;;;4.97;2.00;;;;;;;18.26;47.38;101457.84;146702;589;46020;-65
2021/06/03 00:37:03;;;;;;;5.62;2.28;;;;;;;18.20;47.82;101466.12;146706;564;46021;-65
2021/06/03 00:39:34;;;;;;;3.08;1.90;;;;;;;18.17;47.67;101464.47;146706;600;45902;-66
2021/06/03 00:42:04;;;;;;;2.80;1.98;;;;;;;18.14;47.55;101461.09;146706;602;46020;-65
2021/06/03 00:44:36;;;;;;;3.92;1.98;;;;;;;18.08;47.99;101471.09;146701;591;47018;-65
2021/06/03 00:47:06;;;;;;;3.42;2.03;;;;;;;18.06;47.97;101478.25;146706;609;46020;-65
2021/06/03 00:49:37;;;;;;;4.15;2.15;;;;;;;18.05;48.16;101470.38;146705;569;46016;-66
2021/06/03 00:52:08;;;;;;;4.00;1.87;;;;;;;18.04;47.96;101488.13;146709;608;46010;-65
2021/06/03 00:54:39;;;;;;;3.55;2.22;;;;;;;18.01;48.37;101480.28;146704;566;46014;-66
2021/06/03 00:57:10;;;;;;;3.83;2.10;;;;;;;18.00;48.25;101489.19;146708;581;46020;-66
2021/06/03 00:59:41;;;;;;;4.72;2.08;;;;;;;18.01;48.71;101490.91;146701;575;47903;-67
2021/06/03 01:02:11;;;;;;;3.72;2.20;;;;;;;17.96;48.56;101482.31;146708;604;46010;-67
2021/06/03 01:04:42;;;;;;;4.43;2.03;;;;;;;17.98;48.66;101492.84;146703;563;46012;-65
2021/06/03 01:07:12;;;;;;;4.03;2.08;;;;;;;17.93;48.80;101493.94;146705;604;47011;-66
2021/06/03 01:10:06;;;;;;;3.72;2.37;;;;;;;17.88;48.82;101484.44;146704;595;46016;-66
2021/06/03 01:13:27;;;;;;;3.53;2.40;;;;;;;17.83;48.88;101481.97;146709;569;46010;-66
2021/06/03 01:16:02;;;;;;;4.95;2.33;;;;;;;17.81;48.79;101485.63;146700;620;47019;-64
2021/06/03 01:18:38;;;;;;;4.40;2.40;;;;;;;17.80;49.07;101491.84;146706;587;46020;-66
2021/06/03 01:21:15;;;;;;;3.30;2.30;;;;;;;17.73;49.04;101483.34;146700;600;46017;-65
2021/06/03 01:24:38;;;;;;;5.32;2.58;;;;;;;17.68;49.25;101488.84;146707;570;46012;-64
2021/06/03 01:27:24;;;;;;;4.10;2.58;;;;;;;17.59;49.53;101471.53;146703;573;46016;-65
2021/06/03 01:30:14;;;;;;;7.87;2.60;;;;;;;17.70;49.74;101494.97;146706;639;46021;-64
2021/06/03 01:32:52;;;;;;;3.60;2.70;;;;;;;17.51;49.95;101471.03;146704;566;46016;-64
2021/06/03 01:35:29;;;;;;;7.45;2.70;;;;;;;17.58;49.97;101484.91;146706;609;46020;-65
2021/06/03 01:38:04;;;;;;;5.37;2.83;;;;;;;17.60;50.49;101490.97;146702;569;46016;-64
2021/06/03 01:40:38;;;;;;;3.92;2.60;;;;;;;17.50;50.33;101485.22;146708;592;46020;-66
2021/06/03 01:43:10;;;;;;;5.93;2.58;;;;;;;17.47;50.91;101485.38;146703;590;46020;-68
2021/06/03 01:45:42;;;;;;;5.15;2.97;;;;;;;17.35;50.71;101481.47;146710;608;46013;-67
2021/06/03 01:48:16;;;;;;;3.95;2.58;;;;;;;17.37;50.62;101492.00;146704;579;46016;-66
2021/06/03 01:50:48;;;;;;;;;;;;;;;17.35;50.70;101486.78;146709;976;46021;-67
2021/06/03 01:53:21;;;;;;;5.72;2.72;;;;;;;17.35;50.84;101488.56;146708;578;46016;-67
2021/06/03 01:56:01;;;;;;;3.22;2.40;;;;;;;17.31;50.65;101485.19;146706;579;46020;-67
2021/06/03 01:58:32;;;;;;;3.35;2.17;;;;;;;17.27;50.88;101488.06;146702;649;46017;-67
2021/06/03 02:01:04;;;;;;;5.87;2.10;;;;;;;17.27;50.60;101488.06;146707;565;46020;-67
2021/06/03 02:03:35;;;;;;;4.68;2.42;;;;;;;17.22;50.72;101494.41;146702;608;46016;-68
2021/06/03 02:06:07;;;;;;;3.58;2.12;;;;;;;17.23;50.54;101487.31;146707;581;46021;-68
2021/06/03 02:08:38;;;;;;;4.93;2.28;;;;;;;17.23;50.19;101488.16;146703;594;46014;-66
2021/06/03 02:11:09;;;;;;;6.35;2.22;;;;;;;17.19;50.13;101491.03;146708;604;46020;-66
2021/06/03 02:13:45;;;;;;;4.18;2.10;;;;;;;17.11;50.64;101486.03;146705;614;46010;-67
2021/06/03 02:17:04;;;;;;;3.87;1.92;;;;;;;17.11;50.46;101487.84;146709;650;45049;-67
2021/06/03 02:20:09;;;;;;;4.85;2.20;;;;;;;17.11;50.01;101494.00;146703;692;47010;-68
2021/06/03 02:22:43;;;;;;;5.22;2.20;;;;;;;17.13;49.88;101493.94;146706;696;46021;-68
2021/06/03 02:25:15;;;;;;;4.55;2.12;;;;;;;17.09;49.68;101477.31;146704;731;46014;-66
2021/06/03 02:27:48;;;;;;;3.67;2.17;;;;;;;17.12;49.70;101494.87;146705;717;46021;-67
2021/06/03 02:30:20;;;;;;;3.20;2.25;;;;;;;17.09;50.05;101487.91;146702;731;46013;-67
2021/06/03 02:32:52;;;;;;;4.90;2.20;;;;;;;17.09;50.12;101491.41;146708;700;46020;-67
2021/06/03 02:35:23;;;;;;;5.07;2.30;;;;;;;17.12;50.08;101494.87;146704;571;46016;-67
2021/06/03 02:37:54;;;;;;;4.95;2.33;;;;;;;17.07;50.19;101495.94;146707;571;46020;-66
2021/06/03 02:40:30;;;;;;;4.65;2.20;;;;;;;17.07;50.37;101498.59;146703;636;46010;-66
2021/06/03 02:43:01;;;;;;;19.83;4.75;;;;;;;17.07;50.40;101501.25;146708;730;45021;-66
2021/06/03 02:45:32;;;;;;;4.50;2.40;;;;;;;17.07;50.32;101503.03;146701;738;47010;-66
2021/06/03 02:48:04;;;;;;;4.47;2.40;;;;;;;17.07;50.46;101503.91;146707;707;46020;-66
2021/06/03 02:50:34;;;;;;;4.43;2.20;;;;;;;17.07;49.97;101497.72;146704;584;46017;-66
2021/06/03 02:53:05;;;;;;;5.30;2.25;;;;;;;17.04;50.24;101504.00;146704;697;46020;-66
2021/06/03 02:55:36;;;;;;;4.43;2.30;;;;;;;17.02;50.02;101511.19;146703;613;47010;-66
2021/06/03 02:58:08;;;;;;;5.03;2.58;;;;;;;17.01;50.24;101505.94;146707;569;46021;-66
2021/06/03 03:00:39;;;;;;;5.68;2.58;;;;;;;16.92;50.12;101501.87;146704;687;46016;-66
2021/06/03 03:03:11;;;;;;;5.47;2.50;;;;;;;17.00;50.41;101512.19;146707;569;46020;-66
2021/06/03 03:05:43;;;;;;;10.65;3.42;;;;;;;17.01;50.77;101509.47;146704;653;46901;-66
2021/06/03 03:08:13;;;;;;;4.72;2.50;;;;;;;16.99;50.82;101518.41;146710;705;45022;-66
2021/06/03 03:10:49;;;;;;;6.55;2.75;;;;;;;17.00;50.89;101521.00;146703;688;46016;-66
2021/06/03 03:13:20;;;;;;;11.60;2.97;;;;;;;16.93;50.73;101527.47;146708;665;46008;-66
2021/06/03 03:15:51;;;;;;;5.75;2.50;;;;;;;16.88;50.95;101526.78;146701;651;47010;-67
2021/06/03 03:18:22;;;;;;;5.15;2.53;;;;;;;16.85;51.09;101533.09;146706;659;46008;-67
2021/06/03 03:20:53;;;;;;;8.00;2.75;;;;;;;16.82;50.99;101530.56;146704;583;46010;-67
2021/06/03 03:23:24;;;;;;;5.55;2.50;;;;;;;16.84;51.05;101535.78;146708;637;46008;-67
2021/06/03 03:25:55;;;;;;;4.35;2.60;;;;;;;16.79;50.84;101530.69;146702;683;46010;-66
2021/06/03 03:28:25;;;;;;;10.05;2.80;;;;;;;16.78;50.64;101534.25;146710;639;46021;-67
2021/06/03 03:30:56;;;;;;;8.60;2.90;;;;;;;16.80;50.59;101535.06;146704;687;46010;-67
2021/06/03 03:33:26;;;;;;;3.80;2.37;;;;;;;16.80;50.81;101544.78;146707;623;46020;-67
2021/06/03 03:35:57;;;;;;;7.53;2.92;;;;;;;16.77;51.17;101540.47;146702;589;46017;-68
2021/06/03 03:38:28;;;;;;;5.65;2.65;;;;;;;16.75;50.94;101539.69;146706;579;46020;-68
2021/06/03 03:40:59;;;;;;;6.00;2.70;;;;;;;16.74;51.37;101535.31;146705;585;46014;-67
2021/06/03 03:43:29;;;;;;;8.95;3.60;;;;;;;16.74;51.07;101540.59;146707;587;46008;-67
2021/06/03 03:46:00;;;;;;;6.68;2.90;;;;;;;16.75;51.18;101548.50;146704;612;46020;-67
2021/06/03 03:48:30;;;;;;;6.28;2.70;;;;;;;16.75;51.59;101547.66;146706;601;46020;-67
2021/06/03 03:51:01;;;;;;;4.82;2.50;;;;;;;16.78;51.33;101549.31;146704;730;46016;-67
2021/06/03 03:53:31;;;;;;;9.52;2.70;;;;;;;16.81;51.24;101555.34;146707;589;46008;-67
2021/06/03 03:56:02;;;;;;;4.35;2.62;;;;;;;16.83;51.33;101557.97;146702;646;46018;-67
2021/06/03 03:58:36;;;;;;;10.63;2.80;;;;;;;16.85;51.42;101564.03;146708;585;46021;-67
2021/06/03 04:01:07;;;;;;;8.43;3.15;;;;;;;16.86;51.89;101560.47;146702;586;46020;-67
2021/06/03 04:03:38;;;;;;;10.88;2.92;;;;;;;16.90;51.32;101560.31;146707;618;46020;-68
2021/06/03 04:06:09;;;;;;;5.72;2.70;;;;;;;16.97;51.39;101566.22;146703;667;46016;-68
2021/06/03 04:08:39;;;;;;;9.32;3.40;;;;;;;17.05;51.45;101565.91;146707;638;46020;-67
2021/06/03 04:11:10;;;;;;;7.75;3.00;;;;;;;17.17;51.61;101568.06;146702;565;47010;-67
2021/06/03 04:13:40;;;;;;;6.50;2.92;;;;;;;17.27;51.92;101575.63;146706;588;46021;-67
2021/06/03 04:16:11;;;;;;;5.68;3.25;;;;;;;17.32;51.50;101571.84;146702;635;47010;-68
2021/06/03 04:18:41;;;;;;;6.78;3.10;;;;;;;17.41;51.69;101581.19;146705;618;46009;-67
2021/06/03 04:21:12;;;;;;;4.37;2.87;;;;;;;17.49;51.34;101588.84;146703;596;46017;-67
2021/06/03 04:23:42;;;;;;;9.27;3.22;;;;;;;17.55;51.58;101581.47;146703;705;46020;-67
2021/06/03 04:26:13;;;;;;;9.40;3.40;;;;;;;17.67;51.46;101582.72;146702;680;46015;-67
2021/06/03 04:28:44;;;;;;;5.10;3.15;;;;;;;17.87;51.34;101588.94;146705;569;46008;-67
2021/06/03 04:31:15;;;;;;;7.57;3.45;;;;;;;18.00;51.38;101589.28;146700;701;47010;-68
2021/06/03 04:33:45;;;;;;;8.43;3.55;;;;;;;18.09;51.47;101597.69;146703;627;46020;-69
2021/06/03 04:36:16;;;;;;;7.55;3.40;;;;;;;18.23;51.58;101589.09;146702;645;46017;-68
2021/06/03 04:38:46;;;;;;;6.00;3.37;;;;;;;18.40;51.16;101596.28;146703;587;47008;-67
2021/06/03 04:41:17;;;;;;;12.70;3.87;;;;;;;18.57;51.42;101591.97;146700;592;46020;-67
2021/06/03 04:43:48;;;;;;;14.35;4.25;;;;;;;18.73;51.03;101605.41;146707;624;45021;-69
2021/06/03 04:46:19;;;;;;;7.03;4.40;;;;;;;18.95;50.59;101605.25;146699;570;46020;-69
2021/06/03 04:48:49;;;;;;;8.40;4.05;;;;;;;19.09;50.38;101600.09;146705;578;46021;-70
2021/06/03 04:51:20;;;;;;;9.75;4.87;;;;;;;19.25;50.19;101602.84;146700;614;47010;-69
2021/06/03 04:53:50;;;;;;;6.53;4.50;;;;;;;19.37;49.78;101605.81;146704;631;46022;-70
2021/06/03 04:56:21;;;;;;;11.23;5.03;;;;;;;19.49;49.70;101604.34;146701;574;47015;-70
2021/06/03 04:58:52;;;;;;;9.90;4.90;;;;;;;19.62;49.34;101605.44;146701;570;47008;-67
2021/06/03 05:01:22;;;;;;;7.75;4.75;;;;;;;19.78;49.25;101616.16;146703;591;47020;-68
2021/06/03 05:03:53;;;;;;;9.38;4.82;;;;;;;19.89;48.94;101612.97;146706;596;46008;-68
2021/06/03 05:06:24;;;;;;;8.07;4.82;;;;;;;20.02;48.86;101618.47;146703;564;46014;-68
2021/06/03 05:08:54;;;;;;;7.87;4.55;;;;;;;20.18;48.73;101618.53;146706;569;46020;-67
2021/06/03 05:11:25;;;;;;;9.45;4.72;;;;;;;20.32;48.60;101621.28;146701;602;46011;-67
2021/06/03 05:13:55;;;;;;;9.77;4.70;;;;;;;20.50;48.32;101626.56;146707;631;46008;-68
2021/06/03 05:16:26;;;;;;;9.15;4.35;;;;;;;20.62;48.24;101625.88;146700;636;47010;-68
2021/06/03 05:18:56;;;;;;;9.02;4.37;;;;;;;20.69;48.13;101627.28;146706;577;46008;-68
2021/06/03 05:21:27;;;;;;;8.45;4.20;;;;;;;20.81;47.76;101633.75;146700;582;46010;-68
2021/06/03 05:23:57;;;;;;;7.72;4.00;;;;;;;20.92;47.88;101628.62;146706;586;46008;-68
2021/06/03 05:26:28;;;;;;;7.68;3.78;;;;;;;21.04;47.71;101629.75;146703;605;46016;-68
2021/06/03 05:28:59;;;;;;;9.82;3.67;;;;;;;21.17;47.17;101629.03;146705;581;46008;-68
2021/06/03 05:31:29;;;;;;;11.82;3.80;;;;;;;21.29;46.80;101628.31;146700;570;46016;-69
2021/06/03 05:34:00;;;;;;;10.52;3.65;;;;;;;21.34;46.72;101626.25;146705;605;46021;-67
2021/06/03 05:36:30;;;;;;;7.57;3.83;;;;;;;21.44;46.41;101631.91;146701;585;46016;-67
2021/06/03 05:39:01;;;;;;;8.80;4.03;;;;;;;21.52;46.28;101628.78;146705;581;46008;-67
2021/06/03 05:41:32;;;;;;;10.55;4.00;;;;;;;21.63;45.97;101631.69;146702;564;46011;-67
2021/06/03 05:44:08;;;;;;;10.10;4.20;;;;;;;21.73;45.59;101632.84;146706;604;46018;-67
2021/06/03 05:46:40;;;;;;;9.33;4.17;;;;;;;21.86;45.13;101632.12;146701;612;46010;-68
2021/06/03 05:49:11;;;;;;;8.50;3.85;;;;;;;21.90;44.71;101633.66;146703;571;46029;-71
2021/06/03 05:51:43;;;;;;;9.07;3.70;;;;;;;21.97;44.76;101638.50;146700;604;47010;-71
2021/06/03 05:54:13;;;;;;;8.52;3.85;;;;;;;22.06;44.58;101637.09;146705;593;46020;-71
2021/06/03 05:56:44;;;;;;;8.75;3.85;;;;;;;22.14;44.21;101647.28;146702;609;46017;-69
2021/06/03 05:59:15;;;;;;;6.78;3.20;;;;;;;22.19;43.52;101636.31;146704;590;46020;-69
2021/06/03 06:01:45;;;;;;;11.02;4.80;;;;;;;22.09;40.71;101644.03;146701;588;46016;-71
2021/06/03 06:06:07;;;;;;;8.82;4.22;;;;;;;22.06;42.12;101644.25;146707;617;46021;-71
2021/06/03 06:07:06;;;;;;;8.15;3.70;;;;;;;22.10;42.58;101641.28;146701;589;46016;-72
2021/06/03 06:09:37;;;;;;;10.18;3.60;;;;;;;22.15;42.48;101639.16;146704;589;46020;-71
2021/06/03 06:12:08;;;;;;;12.20;4.30;;;;;;;22.22;42.24;101645.00;146702;601;46017;-71
2021/06/03 06:14:39;;;;;;;11.27;4.97;;;;;;;22.23;41.65;101643.22;146703;572;46020;-69
2021/06/03 06:17:10;;;;;;;6.93;4.55;;;;;;;22.28;42.45;101647.31;146702;578;46016;-70
2021/06/03 06:19:41;;;;;;;8.93;4.82;;;;;;;22.34;42.27;101651.44;146703;594;46021;-68
2021/06/03 06:22:12;;;;;;;9.40;4.70;;;;;;;22.42;42.22;101641.09;146700;593;46016;-68
2021/06/03 06:24:45;;;;;;;8.32;4.15;;;;;;;22.52;42.12;101656.59;146705;569;46020;-68
2021/06/03 06:27:16;;;;;;;10.02;4.90;;;;;;;22.67;41.23;101650.25;146701;630;46017;-68
2021/06/03 06:29:46;;;;;;;13.32;5.40;;;;;;;22.66;41.41;101648.50;146705;612;46020;-72
2021/06/03 06:32:17;;;;;;;9.45;5.60;;;;;;;22.65;42.03;101644.16;146701;569;46016;-71
2021/06/03 06:34:47;;;;;;;8.75;5.18;;;;;;;22.75;41.92;101649.75;146705;603;46008;-68
2021/06/03 06:37:18;;;;;;;8.70;4.85;;;;;;;22.88;41.69;101647.13;146703;577;46010;-69
2021/06/03 06:39:49;;;;;;;11.25;5.03;;;;;;;22.95;41.36;101652.00;146703;639;46020;-69
2021/06/03 06:42:19;;;;;;;10.48;4.80;;;;;;;23.06;40.86;101645.94;146700;638;47049;-68
2021/06/03 06:44:50;;;;;;;10.32;4.32;;;;;;;23.05;41.23;101646.87;146704;629;47008;-69
2021/06/03 06:47:20;;;;;;;11.70;4.62;;;;;;;23.18;41.01;101649.63;146701;648;46011;-71
2021/06/03 06:49:50;;;;;;;10.80;5.10;;;;;;;23.22;40.79;101650.28;146707;613;45021;-67
2021/06/03 06:52:21;;;;;;;9.27;4.80;;;;;;;23.29;40.66;101647.09;146702;592;46016;-68
2021/06/03 06:54:53;;;;;;;8.85;5.00;;;;;;;23.26;41.12;101651.81;146705;623;46008;-68
2021/06/03 06:57:24;;;;;;;9.23;4.53;;;;;;;23.33;41.24;101647.75;146700;576;46010;-71
2021/06/03 06:59:54;;;;;;;12.00;4.70;;;;;;;23.43;41.10;101640.81;146705;570;46008;-70
2021/06/03 07:02:25;;;;;;;7.72;4.50;;;;;;;23.57;41.14;101649.75;146702;582;47018;-71
2021/06/03 07:04:56;;;;;;;14.30;4.87;;;;;;;23.73;40.54;101642.34;146702;620;46021;-70
2021/06/03 07:07:26;;;;;;;11.85;4.75;;;;;;;23.83;40.71;101642.56;146701;586;46901;-69
2021/06/03 07:09:57;;;;;;;9.70;4.43;;;;;;;23.83;40.57;101645.25;146705;590;46020;-68
2021/06/03 07:12:28;;;;;;;11.95;4.30;;;;;;;23.90;40.69;101645.72;146702;581;46017;-69
2021/06/03 07:14:58;;;;;;;13.50;4.60;;;;;;;23.86;40.68;101641.50;146704;589;46010;-69
2021/06/03 07:17:29;;;;;;;11.30;4.18;;;;;;;23.91;40.78;101645.59;146701;643;46016;-69
2021/06/03 07:20:00;;;;;;;8.20;3.92;;;;;;;23.78;41.56;101650.06;146699;577;49008;-69
2021/06/03 07:22:30;;;;;;;10.40;4.12;;;;;;;23.73;41.95;101644.16;146699;579;47900;-67
2021/06/03 07:25:01;;;;;;;6.35;4.03;;;;;;;23.68;41.78;101631.09;146704;577;46008;-68
2021/06/03 07:27:31;;;;;;;5.80;3.80;;;;;;;23.82;41.40;101635.47;146699;604;46016;-67
2021/06/03 07:30:02;;;;;;;10.45;3.92;;;;;;;23.95;40.96;101640.91;146705;573;46008;-67
2021/06/03 07:32:34;;;;;;;6.90;3.50;;;;;;;24.13;40.27;101644.09;146702;603;46010;-67
2021/06/03 07:35:09;;;;;;;7.32;3.70;;;;;;;24.00;40.87;101649.44;146706;655;46008;-67
2021/06/03 07:37:45;;;;;;;9.60;4.40;;;;;;;24.13;40.63;101636.91;146701;582;46016;-71
2021/06/03 07:40:20;;;;;;;14.73;5.90;;;;;;;24.11;40.12;101636.16;146705;611;46021;-69
2021/06/03 07:42:51;;;;;;;8.27;4.70;;;;;;;24.07;40.67;101634.66;146700;590;46017;-68
2021/06/03 07:45:27;;;;;;;8.88;4.80;;;;;;;24.12;40.78;101624.44;146703;615;47006;-68
2021/06/03 07:47:58;;;;;;;6.12;4.22;;;;;;;24.07;41.36;101633.78;146700;595;46011;-68
2021/06/03 07:50:31;;;;;;;7.80;4.18;;;;;;;24.21;41.30;101628.31;146705;617;46020;-67
2021/06/03 07:53:04;;;;;;;7.57;3.70;;;;;;;24.21;41.71;101632.81;146702;592;46014;-67
2021/06/03 07:55:35;;;;;;;8.43;4.05;;;;;;;24.25;41.20;101634.28;146704;573;46021;-68
2021/06/03 07:58:10;;;;;;;7.32;3.72;;;;;;;24.43;40.68;101632.97;146700;654;46010;-69
2021/06/03 08:00:43;;;;;;;7.12;3.12;;;;;;;24.62;40.19;101637.06;146705;570;46020;-69
2021/06/03 08:03:14;;;;;;;10.65;3.10;;;;;;;24.67;39.59;101640.25;146698;615;47010;-68
2021/06/03 08:05:44;;;;;;;6.57;3.80;;;;;;;24.47;39.96;101631.78;146704;603;46020;-67
2021/06/03 08:08:15;;;;;;;7.75;3.75;;;;;;;24.46;40.20;101632.75;146701;638;46016;-68
2021/06/03 08:10:46;;;;;;;12.23;3.60;;;;;;;24.47;40.65;101629.09;146704;599;46008;-68
2021/06/03 08:13:17;;;;;;;8.73;3.70;;;;;;;24.56;41.27;101632.94;146698;600;46010;-67
2021/06/03 08:15:47;;;;;;;6.47;3.30;;;;;;;24.44;41.47;101629.34;146704;566;46020;-68
2021/06/03 08:18:18;;;;;;;7.05;3.65;;;;;;;24.57;40.33;101631.13;146699;671;47010;-68
2021/06/03 08:20:52;;;;;;;4.55;3.20;;;;;;;24.56;40.72;101622.19;146705;574;46020;-68
2021/06/03 08:23:25;;;;;;;6.03;3.60;;;;;;;24.74;40.68;101629.91;146700;569;46016;-67
2021/06/03 08:25:56;;;;;;;6.55;3.47;;;;;;;24.66;40.61;101612.53;146703;640;46009;-68
2021/06/03 08:28:28;;;;;;;10.18;4.50;;;;;;;24.77;40.66;101619.81;146702;577;46016;-68
2021/06/03 08:31:00;;;;;;;5.37;3.50;;;;;;;24.73;40.97;101612.94;146706;604;46020;-68
2021/06/03 08:33:31;;;;;;;6.40;3.35;;;;;;;24.83;41.36;101616.66;146702;635;46017;-68
2021/06/03 08:36:01;;;;;;;7.55;3.80;;;;;;;24.91;40.52;101613.41;146706;571;46020;-67
2021/06/03 08:38:33;;;;;;;5.95;3.20;;;;;;;25.01;40.95;101613.56;146701;593;46016;-68
2021/06/03 08:41:04;;;;;;;8.25;4.30;;;;;;;25.04;40.77;101602.59;146704;594;46021;-68
2021/06/03 08:43:35;;;;;;;5.00;3.17;;;;;;;25.18;40.30;101610.47;146702;586;46016;-67
2021/06/03 08:46:05;;;;;;;6.00;3.35;;;;;;;25.24;39.59;101600.22;146703;617;46020;-68
2021/06/03 08:48:36;;;;;;;5.10;3.10;;;;;;;25.11;39.66;101606.53;146703;609;46014;-68
2021/06/03 08:51:07;;;;;;;6.43;3.10;;;;;;;25.12;40.10;101602.87;146704;604;46020;-68
2021/06/03 08:53:37;;;;;;;4.93;2.80;;;;;;;25.25;39.58;101596.59;146703;563;46014;-67
2021/06/03 08:56:20;;;;;;;5.32;2.67;;;;;;;25.16;38.99;101603.50;146707;612;46008;-68
2021/06/03 08:59:01;;;;;;;5.07;2.40;;;;;;;25.03;39.00;101595.53;146702;571;46014;-68
2021/06/03 09:01:32;;;;;;;5.45;2.60;;;;;;;25.22;39.04;101591.41;146704;569;46008;-68
2021/06/03 09:04:02;;;;;;;4.12;2.40;;;;;;;25.26;38.75;101590.22;146702;567;46011;-68
2021/06/03 09:06:33;;;;;;;3.37;2.30;;;;;;;25.49;37.59;101588.47;146706;573;46020;-68
2021/06/03 09:09:06;;;;;;;4.78;2.45;;;;;;;25.41;37.92;101586.41;146702;569;46010;-67
2021/06/03 09:11:36;;;;;;;3.70;2.50;;;;;;;25.41;37.73;101591.78;146704;570;46021;-68
2021/06/03 09:14:10;;;;;;;3.58;2.30;;;;;;;25.42;38.31;101589.94;146701;589;46016;-67
2021/06/03 09:16:41;;;;;;;4.30;2.15;;;;;;;25.58;37.57;101592.28;146703;582;46020;-67
2021/06/03 09:19:14;;;;;;;4.07;2.20;;;;;;;25.61;36.73;101590.19;146700;566;46010;-68
2021/06/03 09:21:53;;;;;;;5.45;2.40;;;;;;;25.57;36.99;101591.41;146705;590;46008;-67
2021/06/03 09:24:31;;;;;;;4.90;2.45;;;;;;;25.52;36.38;101580.19;146701;596;46016;-68
2021/06/03 09:27:03;;;;;;;3.30;2.22;;;;;;;25.33;36.26;101578.06;146706;577;46020;-67
2021/06/03 09:29:38;;;;;;;4.07;2.50;;;;;;;25.43;36.26;101579.06;146700;570;46016;-67
2021/06/03 09:32:12;;;;;;;4.68;2.30;;;;;;;25.46;36.59;101584.19;146704;579;46021;-68
2021/06/03 09:34:56;;;;;;;4.37;2.33;;;;;;;25.54;36.07;101577.38;146706;570;46010;-68
2021/06/03 09:37:34;;;;;;;4.57;2.35;;;;;;;25.75;35.14;101575.69;146704;586;46020;-66
2021/06/03 09:40:06;;;;;;;4.18;2.28;;;;;;;25.88;35.19;101577.41;146702;608;46011;-67
2021/06/03 09:42:36;;;;;;;3.65;2.03;;;;;;;25.89;34.75;101579.09;146705;564;47008;-65
2021/06/03 09:45:09;;;;;;;4.75;2.05;;;;;;;25.77;34.81;101571.03;146703;588;46016;-66
2021/06/03 09:47:41;;;;;;;5.03;2.30;;;;;;;25.73;35.23;101574.94;146705;650;46021;-66
2021/06/03 09:50:13;;;;;;;4.55;2.03;;;;;;;25.82;35.19;101576.91;146702;583;46010;-66
2021/06/03 09:52:46;;;;;;;5.20;2.28;;;;;;;25.77;34.75;101587.16;146707;623;46008;-64
2021/06/03 09:55:16;;;;;;;5.00;2.22;;;;;;;25.83;34.95;101572.37;146703;575;46011;-66
2021/06/03 09:57:55;;;;;;;3.90;2.42;;;;;;;25.83;34.84;101573.25;146706;565;46008;-66
2021/06/03 10:00:25;;;;;;;5.20;2.20;;;;;;;25.89;34.75;101576.41;146702;618;46010;-66
2021/06/03 10:02:59;;;;;;;4.18;2.10;;;;;;;25.95;34.12;101581.31;146703;581;46021;-66
2021/06/03 10:05:30;;;;;;;4.10;2.30;;;;;;;25.82;34.21;101571.53;146701;571;46010;-67
2021/06/03 10:08:04;;;;;;;3.12;2.10;;;;;;;25.77;34.57;101562.13;146708;573;46008;-66
2021/06/03 10:10:39;;;;;;;4.90;2.20;;;;;;;25.82;33.76;101562.59;146701;577;46017;-66
2021/06/03 10:13:12;;;;;;;6.87;2.40;;;;;;;25.77;34.16;101548.69;146706;576;46020;-66
2021/06/03 10:15:45;;;;;;;4.43;2.50;;;;;;;25.72;34.76;101551.72;146702;584;46010;-66
2021/06/03 10:18:19;;;;;;;4.40;2.10;;;;;;;25.70;34.70;101553.69;146704;590;45021;-65
2021/06/03 10:20:54;;;;;;;4.07;2.42;;;;;;;25.76;35.32;101546.94;146701;596;46010;-66
2021/06/03 10:23:30;;;;;;;5.90;2.10;;;;;;;26.02;34.55;101550.28;146704;575;46020;-66
2021/06/03 10:26:06;;;;;;;4.00;2.20;;;;;;;26.13;34.45;101555.63;146701;579;46017;-66
2021/06/03 10:28:38;;;;;;;5.18;2.40;;;;;;;26.18;34.61;101558.81;146701;565;47008;-64
2021/06/03 10:31:12;;;;;;;5.33;2.30;;;;;;;26.26;33.97;101549.25;146702;629;46016;-65
2021/06/03 10:33:42;;;;;;;;;;;;;;;26.34;34.92;101541.41;146712;979;46021;-66
2021/06/03 10:36:13;;;;;;;4.70;2.08;;;;;;;26.33;35.16;101542.41;146708;612;46016;-65
2021/06/03 10:38:44;;;;;;;5.15;2.47;;;;;;;26.17;35.74;101545.47;146707;624;46020;-66
2021/06/03 10:41:17;;;;;;;4.50;2.40;;;;;;;26.14;35.16;101546.59;146703;595;46016;-65
2021/06/03 10:43:48;;;;;;;3.50;2.50;;;;;;;25.93;35.43;101550.97;146706;581;46020;-65
2021/06/03 10:46:19;;;;;;;3.47;2.33;;;;;;;25.92;35.44;101560.03;146702;569;47012;-65
2021/06/03 10:48:49;;;;;;;4.22;2.40;;;;;;;25.93;35.90;101543.78;146706;572;46010;-66
2021/06/03 10:51:20;;;;;;;3.67;2.40;;;;;;;25.86;35.98;101545.22;146701;587;46902;-65
2021/06/03 10:53:51;;;;;;;3.87;2.50;;;;;;;25.71;35.25;101539.22;146703;589;47010;-65
2021/06/03 10:56:25;;;;;;;3.42;2.22;;;;;;;25.81;35.20;101542.91;146703;603;46017;-66
2021/06/03 10:59:04;;;;;;;4.05;2.33;;;;;;;25.68;34.81;101534.09;146709;565;46020;-67
2021/06/03 11:01:52;;;;;;;3.77;2.23;;;;;;;25.73;34.63;101531.91;146702;632;46017;-65
2021/06/03 11:04:30;;;;;;;5.30;2.37;;;;;;;25.98;34.33;101524.56;146708;570;46020;-68
2021/06/03 11:07:02;;;;;;;3.50;2.40;;;;;;;25.83;34.98;101530.22;146702;605;46016;-66
2021/06/03 11:09:39;;;;;;;6.03;2.60;;;;;;;25.85;35.29;101525.56;146704;626;46021;-65
2021/06/03 11:12:21;;;;;;;5.35;2.40;;;;;;;25.90;34.95;101525.16;146703;608;46016;-65
2021/06/03 11:15:09;;;;;;;9.88;2.60;;;;;;;26.08;35.38;101524.69;146705;572;46010;-66
2021/06/03 11:17:57;;;;;;;4.22;2.50;;;;;;;25.93;35.08;101516.88;146704;616;46016;-65
2021/06/03 11:20:44;;;;;;;3.37;2.15;;;;;;;26.16;34.82;101516.84;146705;588;46020;-65
2021/06/03 11:23:51;;;;;;;4.25;2.30;;;;;;;26.19;34.03;101516.62;146701;586;46016;-67
2021/06/03 11:26:59;;;;;;;6.07;2.17;;;;;;;26.11;34.19;101505.63;146706;572;46021;-66
2021/06/03 11:29:37;;;;;;;3.65;2.30;;;;;;;26.22;34.47;101511.00;146705;569;46012;-66
2021/06/03 11:32:23;;;;;;;4.75;2.53;;;;;;;26.16;34.16;101501.59;146710;617;46011;-66
2021/06/03 11:35:00;;;;;;;4.85;2.60;;;;;;;26.16;33.10;101498.03;146704;609;47020;-67
2021/06/03 11:37:46;;;;;;;4.68;2.50;;;;;;;26.28;32.93;101496.16;146694;569;47010;-67
2021/06/03 11:40:23;;;;;;;5.40;2.30;;;;;;;26.17;32.54;101492.50;146695;589;46013;-67
2021/06/03 11:43:12;;;;;;;5.15;2.47;;;;;;;26.30;33.04;101492.38;146694;581;46020;-66
2021/06/03 11:45:46;;;;;;;6.32;2.35;;;;;;;26.42;32.16;101495.00;146693;569;46016;-67
2021/06/03 11:48:32;;;;;;;3.15;2.20;;;;;;;26.38;31.93;101488.19;146692;574;46020;-67
2021/06/03 11:51:08;;;;;;;3.60;2.58;;;;;;;26.33;34.81;101483.19;146690;577;47012;-66
2021/06/03 11:53:49;;;;;;;5.18;2.60;;;;;;;26.18;37.47;101496.06;146692;623;46020;-67